sensor_id;sensor_type;location;lat;lon;timestamp;temperature;humidity
25250;DHT22;13201;51.148;13.738;2024-01-27T00:01:32;5.40;99.90
25250;DHT22;13201;51.148;13.738;2024-01-27T00:03:57;5.40;99.90
25250;DHT22;13201;51.148;13.738;2024-01-27T00:06:23;5.40;99.90
25250;DHT22;13201;51.148;13.738;2024-01-27T00:08:49;5.30;99.90
25250;DHT22;13201;51.148;13.738;2024-01-27T00:11:14;5.30;99.90
25250;DHT22;13201;51.148;13.738;2024-01-27T00:13:40;5.30;99.90
25250;DHT22;13201;51.148;13.738;2024-01-27T00:16:06;5.30;99.90
25250;DHT22;13201;51.148;13.738;2024-01-27T00:18:32;5.30;99.90
25250;DHT22;13201;51.148;13.738;2024-01-27T00:20:57;5.30;99.90
25250;DHT22;13201;51.148;13.738;2024-01-27T00:23:23;5.30;99.90
25250;DHT22;13201;51.148;13.738;2024-01-27T00:25:49;5.30;99.90
25250;DHT22;13201;51.148;13.738;2024-01-27T00:28:14;5.30;99.90
25250;DHT22;13201;51.148;13.738;2024-01-27T00:30:40;5.40;99.90
25250;DHT22;13201;51.148;13.738;2024-01-27T00:33:06;5.30;99.90
25250;DHT22;13201;51.148;13.738;2024-01-27T00:35:31;5.30;99.90
25250;DHT22;13201;51.148;13.738;2024-01-27T00:37:57;5.40;99.90
25250;DHT22;13201;51.148;13.738;2024-01-27T00:40:23;5.30;99.90
25250;DHT22;13201;51.148;13.738;2024-01-27T00:42:49;5.20;99.90
25250;DHT22;13201;51.148;13.738;2024-01-27T00:45:14;5.20;99.90
25250;DHT22;13201;51.148;13.738;2024-01-27T00:47:40;5.20;99.90
25250;DHT22;13201;51.148;13.738;2024-01-27T00:50:06;5.20;99.90
25250;DHT22;13201;51.148;13.738;2024-01-27T00:52:34;5.10;99.90
25250;DHT22;13201;51.148;13.738;2024-01-27T00:55:00;5.20;99.90
25250;DHT22;13201;51.148;13.738;2024-01-27T00:57:26;5.30;99.90
25250;DHT22;13201;51.148;13.738;2024-01-27T00:59:51;5.30;99.90
25250;DHT22;13201;51.148;13.738;2024-01-27T01:02:17;5.30;99.90
25250;DHT22;13201;51.148;13.738;2024-01-27T01:28:08;4.40;99.90
25250;DHT22;13201;51.148;13.738;2024-01-27T01:30:34;4.40;99.90
25250;DHT22;13201;51.148;13.738;2024-01-27T01:33:00;4.50;99.90
25250;DHT22;13201;51.148;13.738;2024-01-27T01:35:25;4.60;99.90
25250;DHT22;13201;51.148;13.738;2024-01-27T01:37:51;4.60;99.90
25250;DHT22;13201;51.148;13.738;2024-01-27T01:40:17;4.70;99.90
25250;DHT22;13201;51.148;13.738;2024-01-27T01:42:43;4.70;99.90
25250;DHT22;13201;51.148;13.738;2024-01-27T01:45:11;4.80;99.90
25250;DHT22;13201;51.148;13.738;2024-01-27T01:47:38;4.80;99.90
25250;DHT22;13201;51.148;13.738;2024-01-27T01:50:05;4.90;99.90
25250;DHT22;13201;51.148;13.738;2024-01-27T01:52:31;4.90;99.90
25250;DHT22;13201;51.148;13.738;2024-01-27T01:54:57;4.90;99.90
25250;DHT22;13201;51.148;13.738;2024-01-27T01:57:22;4.90;99.90
25250;DHT22;13201;51.148;13.738;2024-01-27T01:59:48;4.90;99.90
25250;DHT22;13201;51.148;13.738;2024-01-27T02:02:14;4.80;99.90
25250;DHT22;13201;51.148;13.738;2024-01-27T02:04:43;4.70;99.90
25250;DHT22;13201;51.148;13.738;2024-01-27T02:07:10;4.70;99.90
25250;DHT22;13201;51.148;13.738;2024-01-27T02:09:36;4.70;99.90
25250;DHT22;13201;51.148;13.738;2024-01-27T02:12:02;4.70;99.90
25250;DHT22;13201;51.148;13.738;2024-01-27T02:14:28;4.70;99.90
25250;DHT22;13201;51.148;13.738;2024-01-27T02:16:54;4.80;99.90
25250;DHT22;13201;51.148;13.738;2024-01-27T02:19:20;4.90;99.90
25250;DHT22;13201;51.148;13.738;2024-01-27T02:21:45;4.80;99.90
25250;DHT22;13201;51.148;13.738;2024-01-27T02:24:11;4.90;99.90
25250;DHT22;13201;51.148;13.738;2024-01-27T02:26:37;4.80;99.90
25250;DHT22;13201;51.148;13.738;2024-01-27T02:29:03;4.70;99.90
25250;DHT22;13201;51.148;13.738;2024-01-27T02:31:29;4.70;99.90
25250;DHT22;13201;51.148;13.738;2024-01-27T02:33:54;4.70;99.90
25250;DHT22;13201;51.148;13.738;2024-01-27T02:36:20;4.80;99.90
25250;DHT22;13201;51.148;13.738;2024-01-27T02:38:46;4.80;99.90
25250;DHT22;13201;51.148;13.738;2024-01-27T02:41:11;4.80;99.90
25250;DHT22;13201;51.148;13.738;2024-01-27T02:43:38;4.80;99.90
25250;DHT22;13201;51.148;13.738;2024-01-27T02:46:11;4.70;99.90
25250;DHT22;13201;51.148;13.738;2024-01-27T02:48:40;4.70;99.90
25250;DHT22;13201;51.148;13.738;2024-01-27T02:51:07;4.70;99.90
25250;DHT22;13201;51.148;13.738;2024-01-27T02:53:33;4.70;99.90
25250;DHT22;13201;51.148;13.738;2024-01-27T02:55:58;4.70;99.90
25250;DHT22;13201;51.148;13.738;2024-01-27T02:58:24;4.70;99.90
25250;DHT22;13201;51.148;13.738;2024-01-27T03:00:50;4.70;99.90
25250;DHT22;13201;51.148;13.738;2024-01-27T03:03:16;4.70;99.90
25250;DHT22;13201;51.148;13.738;2024-01-27T03:05:41;4.80;99.90
25250;DHT22;13201;51.148;13.738;2024-01-27T03:08:07;4.70;99.90
25250;DHT22;13201;51.148;13.738;2024-01-27T03:10:33;4.60;99.90
25250;DHT22;13201;51.148;13.738;2024-01-27T03:12:58;4.70;99.90
25250;DHT22;13201;51.148;13.738;2024-01-27T03:15:24;4.70;99.90
25250;DHT22;13201;51.148;13.738;2024-01-27T03:17:50;4.70;99.90
25250;DHT22;13201;51.148;13.738;2024-01-27T03:20:16;4.70;99.90
25250;DHT22;13201;51.148;13.738;2024-01-27T03:22:41;4.70;99.90
25250;DHT22;13201;51.148;13.738;2024-01-27T03:25:09;4.60;99.90
25250;DHT22;13201;51.148;13.738;2024-01-27T03:27:35;4.60;99.90
25250;DHT22;13201;51.148;13.738;2024-01-27T03:30:01;4.60;99.90
25250;DHT22;13201;51.148;13.738;2024-01-27T03:32:27;4.60;99.90
25250;DHT22;13201;51.148;13.738;2024-01-27T03:34:53;4.70;99.90
25250;DHT22;13201;51.148;13.738;2024-01-27T03:37:21;4.60;99.90
25250;DHT22;13201;51.148;13.738;2024-01-27T03:39:47;4.50;99.90
25250;DHT22;13201;51.148;13.738;2024-01-27T03:42:13;4.50;99.90
25250;DHT22;13201;51.148;13.738;2024-01-27T03:44:39;4.50;99.90
25250;DHT22;13201;51.148;13.738;2024-01-27T03:47:04;4.50;99.90
25250;DHT22;13201;51.148;13.738;2024-01-27T03:49:30;4.60;99.90
25250;DHT22;13201;51.148;13.738;2024-01-27T03:51:56;4.60;99.90
25250;DHT22;13201;51.148;13.738;2024-01-27T03:54:21;4.60;99.90
25250;DHT22;13201;51.148;13.738;2024-01-27T03:56:47;4.60;99.90
25250;DHT22;13201;51.148;13.738;2024-01-27T03:59:13;4.50;99.90
25250;DHT22;13201;51.148;13.738;2024-01-27T04:01:38;4.50;99.90
25250;DHT22;13201;51.148;13.738;2024-01-27T04:04:04;4.40;99.90
25250;DHT22;13201;51.148;13.738;2024-01-27T04:06:36;4.40;99.90
25250;DHT22;13201;51.148;13.738;2024-01-27T04:09:02;4.30;99.90
25250;DHT22;13201;51.148;13.738;2024-01-27T04:11:28;4.40;99.90
25250;DHT22;13201;51.148;13.738;2024-01-27T04:13:54;4.40;99.90
25250;DHT22;13201;51.148;13.738;2024-01-27T04:16:19;4.40;99.90
25250;DHT22;13201;51.148;13.738;2024-01-27T04:18:46;4.40;99.90
25250;DHT22;13201;51.148;13.738;2024-01-27T04:21:12;4.40;99.90
25250;DHT22;13201;51.148;13.738;2024-01-27T04:23:38;4.40;99.90
25250;DHT22;13201;51.148;13.738;2024-01-27T04:26:03;4.40;99.90
25250;DHT22;13201;51.148;13.738;2024-01-27T04:28:31;4.40;99.90
25250;DHT22;13201;51.148;13.738;2024-01-27T04:30:57;4.40;99.90
25250;DHT22;13201;51.148;13.738;2024-01-27T04:33:23;4.40;99.90
25250;DHT22;13201;51.148;13.738;2024-01-27T04:35:48;4.40;99.90
25250;DHT22;13201;51.148;13.738;2024-01-27T04:38:14;4.50;99.90
25250;DHT22;13201;51.148;13.738;2024-01-27T04:40:40;4.60;99.90
25250;DHT22;13201;51.148;13.738;2024-01-27T04:43:05;4.50;99.90
25250;DHT22;13201;51.148;13.738;2024-01-27T04:45:31;4.40;99.90
25250;DHT22;13201;51.148;13.738;2024-01-27T04:47:57;4.40;99.90
25250;DHT22;13201;51.148;13.738;2024-01-27T04:50:22;4.30;99.90
25250;DHT22;13201;51.148;13.738;2024-01-27T04:52:48;4.30;99.90
25250;DHT22;13201;51.148;13.738;2024-01-27T04:55:14;4.20;99.90
25250;DHT22;13201;51.148;13.738;2024-01-27T04:57:40;4.30;99.90
25250;DHT22;13201;51.148;13.738;2024-01-27T05:00:06;4.30;99.90
25250;DHT22;13201;51.148;13.738;2024-01-27T05:02:40;4.30;99.90
25250;DHT22;13201;51.148;13.738;2024-01-27T05:05:07;4.40;99.90
25250;DHT22;13201;51.148;13.738;2024-01-27T05:07:33;4.30;99.90
25250;DHT22;13201;51.148;13.738;2024-01-27T05:09:58;4.30;99.90
25250;DHT22;13201;51.148;13.738;2024-01-27T05:12:24;4.30;99.90
25250;DHT22;13201;51.148;13.738;2024-01-27T05:14:50;4.30;99.90
25250;DHT22;13201;51.148;13.738;2024-01-27T05:17:15;4.40;99.90
25250;DHT22;13201;51.148;13.738;2024-01-27T05:19:41;4.40;99.90
25250;DHT22;13201;51.148;13.738;2024-01-27T05:22:07;4.30;99.90
25250;DHT22;13201;51.148;13.738;2024-01-27T05:24:32;4.40;99.90
25250;DHT22;13201;51.148;13.738;2024-01-27T05:26:59;4.30;99.90
25250;DHT22;13201;51.148;13.738;2024-01-27T05:29:27;4.40;99.90
25250;DHT22;13201;51.148;13.738;2024-01-27T05:31:53;4.30;99.90
25250;DHT22;13201;51.148;13.738;2024-01-27T05:34:19;4.50;99.90
25250;DHT22;13201;51.148;13.738;2024-01-27T05:36:47;4.40;99.90
25250;DHT22;13201;51.148;13.738;2024-01-27T05:39:13;4.40;99.90
25250;DHT22;13201;51.148;13.738;2024-01-27T05:41:39;4.50;99.90
25250;DHT22;13201;51.148;13.738;2024-01-27T05:44:04;4.50;99.90
25250;DHT22;13201;51.148;13.738;2024-01-27T05:46:30;4.50;99.90
25250;DHT22;13201;51.148;13.738;2024-01-27T05:48:56;4.40;99.90
25250;DHT22;13201;51.148;13.738;2024-01-27T05:51:27;4.40;99.90
25250;DHT22;13201;51.148;13.738;2024-01-27T05:53:52;4.50;99.90
25250;DHT22;13201;51.148;13.738;2024-01-27T05:56:18;4.50;99.90
25250;DHT22;13201;51.148;13.738;2024-01-27T05:58:47;4.50;99.90
25250;DHT22;13201;51.148;13.738;2024-01-27T06:01:13;4.50;99.90
25250;DHT22;13201;51.148;13.738;2024-01-27T06:03:41;4.40;99.90
25250;DHT22;13201;51.148;13.738;2024-01-27T06:06:08;4.40;99.90
25250;DHT22;13201;51.148;13.738;2024-01-27T06:08:33;4.50;99.90
25250;DHT22;13201;51.148;13.738;2024-01-27T06:10:59;4.40;99.90
25250;DHT22;13201;51.148;13.738;2024-01-27T06:13:25;4.40;99.90
25250;DHT22;13201;51.148;13.738;2024-01-27T06:15:50;4.30;99.90
25250;DHT22;13201;51.148;13.738;2024-01-27T06:18:16;4.30;99.90
25250;DHT22;13201;51.148;13.738;2024-01-27T06:20:42;4.40;99.90
25250;DHT22;13201;51.148;13.738;2024-01-27T06:23:08;4.40;99.90
25250;DHT22;13201;51.148;13.738;2024-01-27T06:25:34;4.40;99.90
25250;DHT22;13201;51.148;13.738;2024-01-27T06:28:00;4.40;99.90
25250;DHT22;13201;51.148;13.738;2024-01-27T06:30:26;4.40;99.90
25250;DHT22;13201;51.148;13.738;2024-01-27T06:32:53;4.50;99.90
25250;DHT22;13201;51.148;13.738;2024-01-27T06:35:19;4.50;99.90
25250;DHT22;13201;51.148;13.738;2024-01-27T06:37:44;4.40;99.90
25250;DHT22;13201;51.148;13.738;2024-01-27T06:40:10;4.40;99.90
25250;DHT22;13201;51.148;13.738;2024-01-27T06:42:37;4.40;99.90
25250;DHT22;13201;51.148;13.738;2024-01-27T06:45:03;4.40;99.90
25250;DHT22;13201;51.148;13.738;2024-01-27T06:47:29;4.40;99.90
25250;DHT22;13201;51.148;13.738;2024-01-27T06:49:55;4.40;99.90
25250;DHT22;13201;51.148;13.738;2024-01-27T06:52:20;4.40;99.90
25250;DHT22;13201;51.148;13.738;2024-01-27T06:54:46;4.30;99.90
25250;DHT22;13201;51.148;13.738;2024-01-27T06:57:23;4.40;99.90
25250;DHT22;13201;51.148;13.738;2024-01-27T06:59:49;4.40;99.90
25250;DHT22;13201;51.148;13.738;2024-01-27T07:02:25;4.40;99.90
25250;DHT22;13201;51.148;13.738;2024-01-27T07:04:52;4.40;99.90
25250;DHT22;13201;51.148;13.738;2024-01-27T07:07:18;4.50;99.90
25250;DHT22;13201;51.148;13.738;2024-01-27T07:09:46;4.40;99.90
25250;DHT22;13201;51.148;13.738;2024-01-27T07:12:12;4.40;99.90
25250;DHT22;13201;51.148;13.738;2024-01-27T07:14:37;4.30;99.90
25250;DHT22;13201;51.148;13.738;2024-01-27T07:17:04;4.40;99.90
25250;DHT22;13201;51.148;13.738;2024-01-27T07:19:31;4.50;99.90
25250;DHT22;13201;51.148;13.738;2024-01-27T07:21:56;4.50;99.90
25250;DHT22;13201;51.148;13.738;2024-01-27T07:24:22;4.40;99.90
25250;DHT22;13201;51.148;13.738;2024-01-27T07:26:48;4.60;99.90
25250;DHT22;13201;51.148;13.738;2024-01-27T07:29:14;4.50;99.90
25250;DHT22;13201;51.148;13.738;2024-01-27T07:31:40;4.60;99.90
25250;DHT22;13201;51.148;13.738;2024-01-27T07:34:06;4.60;99.90
25250;DHT22;13201;51.148;13.738;2024-01-27T07:36:32;4.50;99.90
25250;DHT22;13201;51.148;13.738;2024-01-27T07:38:58;4.50;99.90
25250;DHT22;13201;51.148;13.738;2024-01-27T07:41:24;4.50;99.90
25250;DHT22;13201;51.148;13.738;2024-01-27T07:43:50;4.50;99.90
25250;DHT22;13201;51.148;13.738;2024-01-27T07:46:15;4.60;99.90
25250;DHT22;13201;51.148;13.738;2024-01-27T07:48:41;4.60;99.90
25250;DHT22;13201;51.148;13.738;2024-01-27T07:51:07;4.60;99.90
25250;DHT22;13201;51.148;13.738;2024-01-27T07:53:33;4.60;99.90
25250;DHT22;13201;51.148;13.738;2024-01-27T07:55:59;4.60;99.90
25250;DHT22;13201;51.148;13.738;2024-01-27T07:58:25;4.70;99.90
25250;DHT22;13201;51.148;13.738;2024-01-27T08:00:51;4.70;99.90
25250;DHT22;13201;51.148;13.738;2024-01-27T08:03:17;4.70;99.90
25250;DHT22;13201;51.148;13.738;2024-01-27T08:05:42;4.70;99.90
25250;DHT22;13201;51.148;13.738;2024-01-27T08:08:08;4.80;99.90
25250;DHT22;13201;51.148;13.738;2024-01-27T08:10:33;4.90;99.90
25250;DHT22;13201;51.148;13.738;2024-01-27T08:12:59;4.80;99.90
25250;DHT22;13201;51.148;13.738;2024-01-27T08:15:25;4.90;99.90
25250;DHT22;13201;51.148;13.738;2024-01-27T08:17:51;4.90;99.90
25250;DHT22;13201;51.148;13.738;2024-01-27T08:20:16;4.90;99.90
25250;DHT22;13201;51.148;13.738;2024-01-27T08:22:42;4.90;99.90
25250;DHT22;13201;51.148;13.738;2024-01-27T08:25:08;4.90;99.90
25250;DHT22;13201;51.148;13.738;2024-01-27T08:27:33;4.90;99.90
25250;DHT22;13201;51.148;13.738;2024-01-27T08:29:59;4.90;99.90
25250;DHT22;13201;51.148;13.738;2024-01-27T08:32:25;5.10;99.90
25250;DHT22;13201;51.148;13.738;2024-01-27T08:34:50;5.10;99.90
25250;DHT22;13201;51.148;13.738;2024-01-27T08:37:20;5.10;99.90
25250;DHT22;13201;51.148;13.738;2024-01-27T08:39:46;5.10;99.90
25250;DHT22;13201;51.148;13.738;2024-01-27T08:42:12;5.00;99.90
25250;DHT22;13201;51.148;13.738;2024-01-27T08:44:38;5.10;99.90
25250;DHT22;13201;51.148;13.738;2024-01-27T08:47:05;5.20;99.90
25250;DHT22;13201;51.148;13.738;2024-01-27T08:49:30;5.20;99.90
25250;DHT22;13201;51.148;13.738;2024-01-27T08:51:56;5.20;99.90
25250;DHT22;13201;51.148;13.738;2024-01-27T08:54:22;5.10;99.90
25250;DHT22;13201;51.148;13.738;2024-01-27T08:56:48;5.20;99.90
25250;DHT22;13201;51.148;13.738;2024-01-27T08:59:13;5.20;99.90
25250;DHT22;13201;51.148;13.738;2024-01-27T09:01:39;5.30;99.90
25250;DHT22;13201;51.148;13.738;2024-01-27T09:04:05;5.30;99.90
25250;DHT22;13201;51.148;13.738;2024-01-27T09:06:30;5.20;99.90
25250;DHT22;13201;51.148;13.738;2024-01-27T09:08:56;5.20;99.90
25250;DHT22;13201;51.148;13.738;2024-01-27T09:11:22;5.30;99.90
25250;DHT22;13201;51.148;13.738;2024-01-27T09:13:49;5.20;99.90
25250;DHT22;13201;51.148;13.738;2024-01-27T09:16:17;5.20;99.90
25250;DHT22;13201;51.148;13.738;2024-01-27T09:18:43;5.30;99.90
25250;DHT22;13201;51.148;13.738;2024-01-27T09:21:09;5.30;99.90
25250;DHT22;13201;51.148;13.738;2024-01-27T09:23:35;5.30;99.90
25250;DHT22;13201;51.148;13.738;2024-01-27T09:26:01;5.30;99.90
25250;DHT22;13201;51.148;13.738;2024-01-27T09:28:26;5.30;99.90
25250;DHT22;13201;51.148;13.738;2024-01-27T09:30:52;5.40;99.90
25250;DHT22;13201;51.148;13.738;2024-01-27T09:33:18;5.50;99.90
25250;DHT22;13201;51.148;13.738;2024-01-27T09:35:46;5.60;99.90
25250;DHT22;13201;51.148;13.738;2024-01-27T09:38:12;5.50;99.90
25250;DHT22;13201;51.148;13.738;2024-01-27T09:40:40;5.40;99.90
25250;DHT22;13201;51.148;13.738;2024-01-27T09:43:05;5.50;99.90
25250;DHT22;13201;51.148;13.738;2024-01-27T09:45:32;5.40;99.90
25250;DHT22;13201;51.148;13.738;2024-01-27T09:48:00;5.40;99.90
25250;DHT22;13201;51.148;13.738;2024-01-27T09:50:26;5.30;99.90
25250;DHT22;13201;51.148;13.738;2024-01-27T09:52:52;5.40;99.90
25250;DHT22;13201;51.148;13.738;2024-01-27T09:55:18;5.60;99.90
25250;DHT22;13201;51.148;13.738;2024-01-27T09:57:44;5.60;99.90
25250;DHT22;13201;51.148;13.738;2024-01-27T10:00:11;5.50;99.90
25250;DHT22;13201;51.148;13.738;2024-01-27T10:02:39;5.60;99.90
25250;DHT22;13201;51.148;13.738;2024-01-27T10:05:09;5.50;99.90
25250;DHT22;13201;51.148;13.738;2024-01-27T10:07:34;5.40;99.90
25250;DHT22;13201;51.148;13.738;2024-01-27T10:10:00;5.60;99.90
25250;DHT22;13201;51.148;13.738;2024-01-27T10:12:28;5.70;99.90
25250;DHT22;13201;51.148;13.738;2024-01-27T10:14:54;5.70;99.90
25250;DHT22;13201;51.148;13.738;2024-01-27T10:17:21;5.70;99.90
25250;DHT22;13201;51.148;13.738;2024-01-27T10:19:48;5.80;99.90
25250;DHT22;13201;51.148;13.738;2024-01-27T10:22:24;5.70;99.90
25250;DHT22;13201;51.148;13.738;2024-01-27T10:24:49;5.60;99.90
25250;DHT22;13201;51.148;13.738;2024-01-27T10:27:16;5.60;99.90
25250;DHT22;13201;51.148;13.738;2024-01-27T10:29:52;5.80;99.90
25250;DHT22;13201;51.148;13.738;2024-01-27T10:32:18;5.80;99.90
25250;DHT22;13201;51.148;13.738;2024-01-27T10:34:44;5.90;99.90
25250;DHT22;13201;51.148;13.738;2024-01-27T10:37:12;5.80;99.90
25250;DHT22;13201;51.148;13.738;2024-01-27T10:39:38;5.90;99.90
25250;DHT22;13201;51.148;13.738;2024-01-27T10:42:05;5.90;99.90
25250;DHT22;13201;51.148;13.738;2024-01-27T10:44:31;6.00;99.90
25250;DHT22;13201;51.148;13.738;2024-01-27T10:47:01;5.80;99.90
25250;DHT22;13201;51.148;13.738;2024-01-27T10:49:31;5.80;99.90
25250;DHT22;13201;51.148;13.738;2024-01-27T10:51:59;5.80;99.90
25250;DHT22;13201;51.148;13.738;2024-01-27T10:54:28;5.90;99.90
25250;DHT22;13201;51.148;13.738;2024-01-27T10:56:56;5.80;99.90
25250;DHT22;13201;51.148;13.738;2024-01-27T10:59:22;5.80;99.90
25250;DHT22;13201;51.148;13.738;2024-01-27T11:01:52;5.90;99.90
25250;DHT22;13201;51.148;13.738;2024-01-27T11:04:20;6.00;99.90
25250;DHT22;13201;51.148;13.738;2024-01-27T11:06:47;6.40;99.90
25250;DHT22;13201;51.148;13.738;2024-01-27T11:09:14;6.50;99.90
25250;DHT22;13201;51.148;13.738;2024-01-27T11:11:42;6.40;99.90
25250;DHT22;13201;51.148;13.738;2024-01-27T11:14:09;6.30;99.90
25250;DHT22;13201;51.148;13.738;2024-01-27T11:16:35;6.40;99.90
25250;DHT22;13201;51.148;13.738;2024-01-27T11:19:04;6.40;99.90
25250;DHT22;13201;51.148;13.738;2024-01-27T11:21:30;6.50;99.90
25250;DHT22;13201;51.148;13.738;2024-01-27T11:23:55;6.40;99.90
25250;DHT22;13201;51.148;13.738;2024-01-27T11:26:22;6.50;99.90
25250;DHT22;13201;51.148;13.738;2024-01-27T11:28:48;6.50;99.90
25250;DHT22;13201;51.148;13.738;2024-01-27T11:31:17;6.30;99.90
25250;DHT22;13201;51.148;13.738;2024-01-27T11:33:47;6.20;99.90
25250;DHT22;13201;51.148;13.738;2024-01-27T11:36:23;6.30;99.90
25250;DHT22;13201;51.148;13.738;2024-01-27T11:38:50;6.20;99.90
25250;DHT22;13201;51.148;13.738;2024-01-27T11:41:26;6.10;99.90
25250;DHT22;13201;51.148;13.738;2024-01-27T11:43:53;6.10;99.90
25250;DHT22;13201;51.148;13.738;2024-01-27T11:46:19;6.30;99.90
25250;DHT22;13201;51.148;13.738;2024-01-27T11:48:45;6.30;99.90
25250;DHT22;13201;51.148;13.738;2024-01-27T11:51:12;6.30;99.90
25250;DHT22;13201;51.148;13.738;2024-01-27T11:53:38;6.40;99.90
25250;DHT22;13201;51.148;13.738;2024-01-27T11:56:04;6.60;99.90
25250;DHT22;13201;51.148;13.738;2024-01-27T11:58:31;6.80;99.90
25250;DHT22;13201;51.148;13.738;2024-01-27T12:00:57;6.70;99.90
25250;DHT22;13201;51.148;13.738;2024-01-27T12:03:24;6.80;99.90
25250;DHT22;13201;51.148;13.738;2024-01-27T12:05:50;6.90;99.90
25250;DHT22;13201;51.148;13.738;2024-01-27T12:08:16;7.20;99.90
25250;DHT22;13201;51.148;13.738;2024-01-27T12:10:42;7.30;99.90
25250;DHT22;13201;51.148;13.738;2024-01-27T12:13:08;7.50;99.90
25250;DHT22;13201;51.148;13.738;2024-01-27T12:15:34;7.80;99.90
25250;DHT22;13201;51.148;13.738;2024-01-27T12:17:59;7.80;99.90
25250;DHT22;13201;51.148;13.738;2024-01-27T12:20:25;7.80;99.90
25250;DHT22;13201;51.148;13.738;2024-01-27T12:23:02;7.80;99.90
25250;DHT22;13201;51.148;13.738;2024-01-27T12:25:28;8.00;99.90
25250;DHT22;13201;51.148;13.738;2024-01-27T12:27:53;7.90;99.90
25250;DHT22;13201;51.148;13.738;2024-01-27T12:30:21;7.90;99.90
25250;DHT22;13201;51.148;13.738;2024-01-27T12:32:47;7.80;99.90
25250;DHT22;13201;51.148;13.738;2024-01-27T12:35:13;7.80;99.90
25250;DHT22;13201;51.148;13.738;2024-01-27T12:37:39;8.00;99.90
25250;DHT22;13201;51.148;13.738;2024-01-27T12:40:23;8.00;99.90
25250;DHT22;13201;51.148;13.738;2024-01-27T12:42:49;8.10;99.90
25250;DHT22;13201;51.148;13.738;2024-01-27T12:45:15;8.20;99.90
25250;DHT22;13201;51.148;13.738;2024-01-27T12:47:41;8.20;99.90
25250;DHT22;13201;51.148;13.738;2024-01-27T12:50:07;8.00;99.90
25250;DHT22;13201;51.148;13.738;2024-01-27T12:52:33;8.20;99.90
25250;DHT22;13201;51.148;13.738;2024-01-27T12:54:59;8.50;99.90
25250;DHT22;13201;51.148;13.738;2024-01-27T12:57:25;8.60;99.90
25250;DHT22;13201;51.148;13.738;2024-01-27T12:59:51;8.50;99.90
25250;DHT22;13201;51.148;13.738;2024-01-27T13:02:17;8.50;99.90
25250;DHT22;13201;51.148;13.738;2024-01-27T13:04:42;8.20;99.90
25250;DHT22;13201;51.148;13.738;2024-01-27T13:07:09;8.20;99.90
25250;DHT22;13201;51.148;13.738;2024-01-27T13:09:36;7.90;99.90
25250;DHT22;13201;51.148;13.738;2024-01-27T13:12:02;7.90;99.90
25250;DHT22;13201;51.148;13.738;2024-01-27T13:14:29;7.80;99.90
25250;DHT22;13201;51.148;13.738;2024-01-27T13:16:54;7.90;99.90
25250;DHT22;13201;51.148;13.738;2024-01-27T13:19:22;7.80;99.90
25250;DHT22;13201;51.148;13.738;2024-01-27T13:21:47;7.70;99.90
25250;DHT22;13201;51.148;13.738;2024-01-27T13:24:13;7.90;99.90
25250;DHT22;13201;51.148;13.738;2024-01-27T13:26:39;7.80;99.90
25250;DHT22;13201;51.148;13.738;2024-01-27T13:29:05;7.80;99.90
25250;DHT22;13201;51.148;13.738;2024-01-27T13:31:30;7.80;99.90
25250;DHT22;13201;51.148;13.738;2024-01-27T13:33:57;7.70;99.90
25250;DHT22;13201;51.148;13.738;2024-01-27T13:36:23;7.50;99.90
25250;DHT22;13201;51.148;13.738;2024-01-27T13:38:49;7.60;99.90
25250;DHT22;13201;51.148;13.738;2024-01-27T13:41:14;7.80;99.90
25250;DHT22;13201;51.148;13.738;2024-01-27T13:43:41;7.90;99.90
25250;DHT22;13201;51.148;13.738;2024-01-27T13:46:07;7.90;99.90
25250;DHT22;13201;51.148;13.738;2024-01-27T13:48:32;7.90;99.90
25250;DHT22;13201;51.148;13.738;2024-01-27T13:50:58;7.70;99.90
25250;DHT22;13201;51.148;13.738;2024-01-27T13:53:24;7.70;99.90
25250;DHT22;13201;51.148;13.738;2024-01-27T13:55:50;7.60;99.90
25250;DHT22;13201;51.148;13.738;2024-01-27T13:58:19;7.50;99.90
25250;DHT22;13201;51.148;13.738;2024-01-27T14:00:45;7.60;99.90
25250;DHT22;13201;51.148;13.738;2024-01-27T14:03:11;7.60;99.90
25250;DHT22;13201;51.148;13.738;2024-01-27T14:05:37;7.60;99.90
25250;DHT22;13201;51.148;13.738;2024-01-27T14:08:04;7.80;99.90
25250;DHT22;13201;51.148;13.738;2024-01-27T14:10:32;7.80;99.90
25250;DHT22;13201;51.148;13.738;2024-01-27T14:12:58;7.90;99.90
25250;DHT22;13201;51.148;13.738;2024-01-27T14:15:23;8.00;99.90
25250;DHT22;13201;51.148;13.738;2024-01-27T14:17:49;7.90;99.90
25250;DHT22;13201;51.148;13.738;2024-01-27T14:20:15;7.90;99.90
25250;DHT22;13201;51.148;13.738;2024-01-27T14:22:41;8.00;99.90
25250;DHT22;13201;51.148;13.738;2024-01-27T14:25:07;8.20;99.90
25250;DHT22;13201;51.148;13.738;2024-01-27T14:27:33;7.90;99.90
25250;DHT22;13201;51.148;13.738;2024-01-27T14:30:00;7.80;99.90
25250;DHT22;13201;51.148;13.738;2024-01-27T14:32:26;7.80;99.90
25250;DHT22;13201;51.148;13.738;2024-01-27T14:34:52;7.70;99.90
25250;DHT22;13201;51.148;13.738;2024-01-27T14:37:18;7.70;99.90
25250;DHT22;13201;51.148;13.738;2024-01-27T14:39:45;7.60;99.90
25250;DHT22;13201;51.148;13.738;2024-01-27T14:42:12;7.60;99.90
25250;DHT22;13201;51.148;13.738;2024-01-27T14:44:38;7.60;99.90
25250;DHT22;13201;51.148;13.738;2024-01-27T14:47:05;7.70;99.90
25250;DHT22;13201;51.148;13.738;2024-01-27T14:49:32;7.60;99.90
25250;DHT22;13201;51.148;13.738;2024-01-27T14:51:58;7.60;99.90
25250;DHT22;13201;51.148;13.738;2024-01-27T14:54:23;7.70;99.90
25250;DHT22;13201;51.148;13.738;2024-01-27T14:56:49;7.50;99.90
25250;DHT22;13201;51.148;13.738;2024-01-27T14:59:15;7.60;99.90
25250;DHT22;13201;51.148;13.738;2024-01-27T15:01:41;7.70;99.90
25250;DHT22;13201;51.148;13.738;2024-01-27T15:04:07;7.60;99.90
25250;DHT22;13201;51.148;13.738;2024-01-27T15:06:33;7.70;99.90
25250;DHT22;13201;51.148;13.738;2024-01-27T15:08:58;7.60;99.90
25250;DHT22;13201;51.148;13.738;2024-01-27T15:11:24;7.70;99.90
25250;DHT22;13201;51.148;13.738;2024-01-27T15:13:50;7.60;99.90
25250;DHT22;13201;51.148;13.738;2024-01-27T15:16:16;7.80;99.90
25250;DHT22;13201;51.148;13.738;2024-01-27T15:18:42;7.90;99.90
25250;DHT22;13201;51.148;13.738;2024-01-27T15:21:09;7.80;99.90
25250;DHT22;13201;51.148;13.738;2024-01-27T15:23:35;7.40;99.90
25250;DHT22;13201;51.148;13.738;2024-01-27T15:26:03;7.50;99.90
25250;DHT22;13201;51.148;13.738;2024-01-27T15:28:31;7.40;99.90
25250;DHT22;13201;51.148;13.738;2024-01-27T15:30:57;7.50;99.90
25250;DHT22;13201;51.148;13.738;2024-01-27T15:33:22;7.30;99.90
25250;DHT22;13201;51.148;13.738;2024-01-27T15:35:49;7.10;99.90
25250;DHT22;13201;51.148;13.738;2024-01-27T15:38:15;7.20;99.90
25250;DHT22;13201;51.148;13.738;2024-01-27T15:40:41;7.10;99.90
25250;DHT22;13201;51.148;13.738;2024-01-27T15:43:06;7.00;99.90
25250;DHT22;13201;51.148;13.738;2024-01-27T15:45:33;6.90;99.90
25250;DHT22;13201;51.148;13.738;2024-01-27T15:47:59;6.80;99.90